This is the latest recevied weather packets stored in our database for station/object WA4TPR. If no packets are shown the sender has not sent any weather packets the latest 10 day(s).
| Time | Temp. | Humidity | Pressure | Rain* | Wind** | Luminosity | Snow |
|---|---|---|---|---|---|---|---|
| 1777564427 | 28.33° C | 72% | 1016.5 hPa | 0 mm | - | 622 W/m² | - |
| 1777564123 | 27.78° C | 73% | 1016.5 hPa | 0 mm | - | 409 W/m² | - |
| 1777563819 | 27.78° C | 73% | 1016.6 hPa | 0 mm | - | 764 W/m² | - |
| 1777563516 | 27.22° C | 75% | 1016.4 hPa | 0 mm | - | 596 W/m² | - |
| 1777563214 | 27.22° C | 76% | 1016.6 hPa | 0 mm | - | 710 W/m² | - |
| 1777562911 | 27.22° C | 77% | 1016.7 hPa | 0 mm | - | 682 W/m² | - |
| 1777562607 | 26.11° C | 79% | 1016.9 hPa | 0 mm | - | 525 W/m² | - |
| 1777562307 | 26.11° C | 79% | 1016.8 hPa | 0 mm | - | 525 W/m² | - |
| 1777562003 | 26.11° C | 81% | 1016.9 hPa | 0 mm | - | 330 W/m² | - |
| 1777561701 | 26.11° C | 82% | 1016.7 hPa | 0 mm | - | 326 W/m² | - |
| 1777561396 | 26.11° C | 82% | 1017 hPa | 0 mm | - | 279 W/m² | - |
| 1777561091 | 26.11° C | 81% | 1016.9 hPa | 0 mm | - | 326 W/m² | - |
| 1777560787 | 25.56° C | 84% | 1017 hPa | 0 mm | - | 432 W/m² | - |
| 1777560484 | 25° C | 85% | 1017 hPa | 0 mm | - | 301 W/m² | - |
| 1777560182 | 25° C | 90% | 1016.9 hPa | 0 mm | - | 295 W/m² | - |
| 1777559879 | 23.89° C | 95% | 1017 hPa | 0 mm | - | 313 W/m² | - |
| 1777559574 | 23.33° C | 98% | 1017.2 hPa | 0 mm | - | 336 W/m² | - |
| 1777559271 | 22.78° C | 99% | 1017.2 hPa | 0 mm | - | 289 W/m² | - |
| 1777558967 | 22.78° C | 99% | 1017.1 hPa | 0 mm | - | 308 W/m² | - |
| 1777558663 | 23.33° C | 99% | 1017.3 hPa | 0 mm | - | 411 W/m² | - |
| 1777558358 | 22.78° C | 99% | 1017.1 hPa | 0 mm | - | 353 W/m² | - |
| 1777558056 | 22.78° C | 99% | 1017.4 hPa | 0 mm | - | 303 W/m² | - |
| 1777557752 | 22.78° C | 99% | 1017.2 hPa | 0 mm | - | 255 W/m² | - |
| 1777557449 | 22.78° C | 99% | 1017.4 hPa | 0 mm | - | 229 W/m² | - |
| 1777557145 | 22.78° C | 99% | 1017.2 hPa | 0 mm | - | 236 W/m² | - |
* Rain latest hour (hover to see other rain measurements)
** Current wind speed in m/s (hover to see current wind gust speed)